createdAt,value
2023-04-24T00:03:00.863Z,100.00
2023-04-24T00:08:03.176Z,100.00
2023-04-24T00:13:06.428Z,100.00
2023-04-24T00:18:08.841Z,100.00
2023-04-24T00:23:11.565Z,100.00
2023-04-24T00:28:14.148Z,100.00
2023-04-24T00:33:17.065Z,100.00
2023-04-24T00:38:19.902Z,100.00
2023-04-24T00:43:23.234Z,100.00
2023-04-24T00:48:30.843Z,100.00
2023-04-24T00:53:34.141Z,100.00
2023-04-24T00:58:37.193Z,100.00
2023-04-24T01:03:40.346Z,100.00
2023-04-24T01:08:43.298Z,100.00
2023-04-24T01:13:46.808Z,100.00
2023-04-24T01:18:49.747Z,100.00
2023-04-24T01:23:54.601Z,100.00
2023-04-24T01:28:57.721Z,100.00
2023-04-24T01:34:00.684Z,100.00
2023-04-24T01:39:04.708Z,100.00
2023-04-24T01:44:06.969Z,100.00
2023-04-24T01:49:11.729Z,100.00
2023-04-24T01:54:14.676Z,100.00
2023-04-24T01:59:19.297Z,100.00
2023-04-24T02:04:21.997Z,100.00
2023-04-24T02:09:24.828Z,100.00
2023-04-24T02:14:27.641Z,100.00
2023-04-24T02:19:30.438Z,100.00
2023-04-24T02:24:32.996Z,100.00
2023-04-24T02:29:36.134Z,100.00
2023-04-24T02:34:38.652Z,100.00
2023-04-24T02:39:41.432Z,100.00
2023-04-24T02:44:44.406Z,100.00
2023-04-24T02:49:47.147Z,100.00
2023-04-24T02:54:49.764Z,100.00
2023-04-24T02:59:52.559Z,100.00
2023-04-24T03:04:56.229Z,100.00
2023-04-24T03:09:59.614Z,100.00
2023-04-24T03:15:03.569Z,100.00
2023-04-24T03:20:12.259Z,100.00
2023-04-24T03:25:15.378Z,100.00
2023-04-24T03:30:18.116Z,100.00
2023-04-24T03:35:30.173Z,100.00
2023-04-24T03:40:37.212Z,100.00
2023-04-24T03:45:47.806Z,100.00
2023-04-24T03:50:51.712Z,100.00
2023-04-24T03:55:54.908Z,100.00
2023-04-24T04:00:59.474Z,100.00
2023-04-24T04:06:20.728Z,100.00
2023-04-24T04:11:23.662Z,100.00
2023-04-24T04:16:26.959Z,100.00
2023-04-24T04:21:35.674Z,100.00
2023-04-24T04:26:48.448Z,100.00
2023-04-24T04:32:11.485Z,100.00
2023-04-24T04:37:15.610Z,100.00
2023-04-24T04:42:28.416Z,100.00
2023-04-24T04:47:33.314Z,100.00
2023-04-24T04:52:37.584Z,100.00
2023-04-24T04:58:02.964Z,100.00
2023-04-24T05:03:20.058Z,100.00
2023-04-24T05:08:27.970Z,100.00
2023-04-24T05:13:39.762Z,100.00
2023-04-24T05:18:49.425Z,100.00
2023-04-24T05:23:55.831Z,100.00
2023-04-24T05:29:20.408Z,95.20
2023-04-24T05:34:23.729Z,89.64
2023-04-24T05:39:31.045Z,82.29
2023-04-24T05:44:35.772Z,71.64
2023-04-24T05:49:38.076Z,66.41
2023-04-24T05:54:41.596Z,55.06
2023-04-24T05:59:48.209Z,42.17
2023-04-24T06:04:51.925Z,35.49
2023-04-24T06:09:54.348Z,32.81
2023-04-24T06:14:58.682Z,37.06
2023-04-24T06:20:25.670Z,43.19
2023-04-24T06:25:28.475Z,40.11
2023-04-24T06:30:30.711Z,33.67
2023-04-24T06:35:33.601Z,29.77
2023-04-24T06:40:36.233Z,29.36
2023-04-24T06:45:41.033Z,27.93
2023-04-24T06:50:44.034Z,27.89
2023-04-24T06:55:47.270Z,27.35
2023-04-24T07:00:49.394Z,28.08
2023-04-24T07:05:52.481Z,24.54
2023-04-24T07:10:55.062Z,23.74
2023-04-24T07:15:57.890Z,27.21
2023-04-24T07:21:00.798Z,28.04
2023-04-24T07:26:03.730Z,32.21
2023-04-24T07:31:06.472Z,34.97
2023-04-24T07:36:09.295Z,35.63
2023-04-24T07:41:12.109Z,34.71
2023-04-24T07:46:14.483Z,34.26
2023-04-24T07:51:17.544Z,35.60
2023-04-24T07:56:20.450Z,35.22
2023-04-24T08:01:23.129Z,35.56
2023-04-24T08:06:25.625Z,33.31
2023-04-24T08:11:28.765Z,30.65
2023-04-24T08:16:31.743Z,30.86
2023-04-24T08:21:35.070Z,31.03
2023-04-24T08:26:37.307Z,30.73
2023-04-24T08:31:39.420Z,30.79
2023-04-24T08:36:47.005Z,32.41
2023-04-24T08:41:50.646Z,34.27
2023-04-24T08:46:55.139Z,34.89
2023-04-24T08:51:58.297Z,35.61
2023-04-24T08:57:02.572Z,38.22
2023-04-24T09:02:06.132Z,41.10
2023-04-24T09:07:12.104Z,44.62
2023-04-24T09:12:14.531Z,42.03
2023-04-24T09:17:17.592Z,40.70
2023-04-24T09:22:19.939Z,39.43
2023-04-24T09:27:25.683Z,37.47
2023-04-24T09:32:28.920Z,37.49
2023-04-24T09:37:31.881Z,36.30
2023-04-24T09:42:34.500Z,36.32
2023-04-24T09:47:38.649Z,33.48
2023-04-24T09:52:57.534Z,32.95
2023-04-24T09:58:01.947Z,31.65
2023-04-24T10:03:07.129Z,35.01
2023-04-24T10:08:13.319Z,36.93
2023-04-24T10:13:17.002Z,37.23
2023-04-24T10:18:20.514Z,35.76
2023-04-24T10:23:24.423Z,36.84
2023-04-24T10:28:28.611Z,37.62
2023-04-24T10:33:32.695Z,36.92
2023-04-24T10:38:37.177Z,38.52
2023-04-24T10:43:41.562Z,38.09
2023-04-24T10:48:45.539Z,41.00
2023-04-24T10:53:48.074Z,42.64
2023-04-24T10:58:53.488Z,44.22
2023-04-24T11:03:58.668Z,45.18
2023-04-24T11:09:06.634Z,46.46
2023-04-24T11:14:09.676Z,45.50
2023-04-24T11:19:22.657Z,44.70
2023-04-24T11:24:39.153Z,43.42
2023-04-24T11:29:58.738Z,42.46
2023-04-24T11:35:10.433Z,40.59
2023-04-24T11:40:16.861Z,42.07
2023-04-24T11:45:25.510Z,43.88
2023-04-24T11:50:29.890Z,44.41
2023-04-24T11:55:32.580Z,45.22
2023-04-24T12:00:35.663Z,49.12
2023-04-24T12:05:40.130Z,53.13
2023-04-24T12:10:42.936Z,54.22
2023-04-24T12:15:45.655Z,52.07
2023-04-24T12:20:48.249Z,51.71
2023-04-24T12:25:53.097Z,51.14
2023-04-24T12:30:55.741Z,45.01
2023-04-24T12:35:59.724Z,44.27
2023-04-24T12:41:07.726Z,43.22
2023-04-24T12:46:10.044Z,42.61
2023-04-24T12:51:12.753Z,44.11
2023-04-24T12:56:15.386Z,45.15
2023-04-24T13:01:18.007Z,44.29
2023-04-24T13:06:20.678Z,44.69
2023-04-24T13:11:24.213Z,44.55
2023-04-24T13:16:27.066Z,44.91
2023-04-24T13:21:31.587Z,44.78
2023-04-24T13:26:34.583Z,41.57
2023-04-24T13:31:37.431Z,41.42
2023-04-24T13:36:40.007Z,42.58
2023-04-24T13:41:42.697Z,41.26
2023-04-24T13:46:47.347Z,40.74
2023-04-24T13:51:49.864Z,41.63
2023-04-24T13:56:53.179Z,42.09
2023-04-24T14:01:56.712Z,42.17
2023-04-24T14:06:59.422Z,42.66
2023-04-24T14:12:03.199Z,42.97
2023-04-24T14:17:06.447Z,44.67
2023-04-24T14:22:08.764Z,45.88
2023-04-24T14:27:11.329Z,45.65
2023-04-24T14:32:16.222Z,46.25
2023-04-24T14:37:18.972Z,46.81
2023-04-24T14:42:21.490Z,47.27
2023-04-24T14:47:24.313Z,48.08
2023-04-24T14:52:26.971Z,48.66
2023-04-24T14:57:29.689Z,49.21
2023-04-24T15:02:32.009Z,49.85
2023-04-24T15:07:34.815Z,50.36
2023-04-24T15:12:37.457Z,50.40
2023-04-24T15:17:42.036Z,50.28
2023-04-24T15:22:44.680Z,50.15
2023-04-24T15:27:47.747Z,51.04
2023-04-24T15:32:50.451Z,50.92
2023-04-24T15:37:53.150Z,50.81
2023-04-24T15:42:55.924Z,51.53
2023-04-24T15:47:58.714Z,52.10
2023-04-24T15:53:01.393Z,51.55
2023-04-24T15:58:03.747Z,51.93
2023-04-24T16:03:09.309Z,53.00
2023-04-24T16:08:14.526Z,54.98
2023-04-24T16:13:18.965Z,54.03
2023-04-24T16:18:22.276Z,65.87
2023-04-24T16:23:24.932Z,80.61
2023-04-24T16:28:28.332Z,78.44
2023-04-24T16:33:32.244Z,92.88
2023-04-24T16:38:35.989Z,99.39
2023-04-24T16:43:39.240Z,100.00
2023-04-24T16:48:42.827Z,100.00
2023-04-24T16:53:45.490Z,100.00
2023-04-24T16:58:51.652Z,100.00
2023-04-24T17:03:55.094Z,100.00
2023-04-24T17:08:58.545Z,100.00
2023-04-24T17:14:01.745Z,100.00
2023-04-24T17:19:05.844Z,100.00
2023-04-24T17:24:08.784Z,100.00
2023-04-24T17:29:14.992Z,100.00
2023-04-24T17:34:19.655Z,100.00
2023-04-24T17:39:23.193Z,100.00
2023-04-24T17:44:26.084Z,100.00
2023-04-24T17:49:29.079Z,100.00
2023-04-24T17:54:31.712Z,100.00
2023-04-24T17:59:34.412Z,100.00
2023-04-24T18:04:39.397Z,100.00
2023-04-24T18:09:42.321Z,100.00
2023-04-24T18:14:44.967Z,100.00
2023-04-24T18:19:47.809Z,100.00
2023-04-24T18:24:50.818Z,100.00
2023-04-24T18:29:53.561Z,100.00
2023-04-24T18:34:56.874Z,100.00
2023-04-24T18:39:59.764Z,100.00
2023-04-24T18:45:02.648Z,100.00
2023-04-24T18:50:06.770Z,100.00
2023-04-24T18:55:10.145Z,100.00
2023-04-24T19:00:13.320Z,100.00
2023-04-24T19:05:16.529Z,100.00
2023-04-24T19:10:19.182Z,100.00
2023-04-24T19:15:21.825Z,100.00
2023-04-24T19:20:24.572Z,100.00
2023-04-24T19:25:26.813Z,100.00
2023-04-24T19:30:29.454Z,100.00
2023-04-24T19:35:32.038Z,100.00
2023-04-24T19:40:34.876Z,100.00
2023-04-24T19:45:37.403Z,100.00
2023-04-24T19:50:40.521Z,100.00
2023-04-24T19:55:43.597Z,100.00
2023-04-24T20:00:46.899Z,100.00
2023-04-24T20:05:49.512Z,100.00
2023-04-24T20:10:52.609Z,100.00
2023-04-24T20:15:56.083Z,100.00
2023-04-24T20:21:00.125Z,100.00
2023-04-24T20:26:05.143Z,100.00
2023-04-24T20:31:08.001Z,100.00
2023-04-24T20:36:14.342Z,100.00
2023-04-24T20:41:17.454Z,100.00
2023-04-24T20:46:19.910Z,100.00
2023-04-24T20:51:25.392Z,100.00
2023-04-24T20:56:28.012Z,100.00
2023-04-24T21:01:31.234Z,100.00
2023-04-24T21:06:33.492Z,100.00
2023-04-24T21:11:36.458Z,100.00
2023-04-24T21:16:39.584Z,100.00
2023-04-24T21:21:42.229Z,100.00
2023-04-24T21:26:44.964Z,100.00
2023-04-24T21:31:50.725Z,100.00
2023-04-24T21:36:56.659Z,100.00
2023-04-24T21:41:59.290Z,100.00
2023-04-24T21:47:01.853Z,100.00
2023-04-24T21:52:04.502Z,100.00
2023-04-24T21:57:07.536Z,100.00
2023-04-24T22:02:09.928Z,100.00
2023-04-24T22:07:12.594Z,100.00
2023-04-24T22:12:15.386Z,100.00
2023-04-24T22:17:18.065Z,100.00
2023-04-24T22:22:20.720Z,100.00
2023-04-24T22:27:23.367Z,100.00
2023-04-24T22:32:26.364Z,100.00
2023-04-24T22:37:29.146Z,100.00
2023-04-24T22:42:31.604Z,100.00
2023-04-24T22:47:34.407Z,100.00
2023-04-24T22:52:37.493Z,100.00
2023-04-24T22:57:41.445Z,100.00
2023-04-24T23:02:43.960Z,100.00
2023-04-24T23:07:46.949Z,100.00
2023-04-24T23:12:50.197Z,100.00
2023-04-24T23:17:52.562Z,100.00
2023-04-24T23:22:55.371Z,100.00
2023-04-24T23:27:57.994Z,100.00
2023-04-24T23:33:00.987Z,100.00
2023-04-24T23:38:03.636Z,100.00
2023-04-24T23:43:07.912Z,100.00
2023-04-24T23:48:11.537Z,100.00
2023-04-24T23:53:13.706Z,100.00
2023-04-24T23:58:16.273Z,100.00
